createdAt,value
2022-09-30T00:09:39.352Z,5
2022-09-30T00:19:44.255Z,5
2022-09-30T00:29:44.075Z,4.9
2022-09-30T00:39:45.763Z,4.8
2022-09-30T00:49:47.941Z,4.8
2022-09-30T00:59:50.973Z,4.8
2022-09-30T01:09:52.378Z,4.8
2022-09-30T01:19:53.992Z,4.8
2022-09-30T01:29:56.663Z,4.7
2022-09-30T01:39:57.846Z,4.5
2022-09-30T01:50:00.343Z,4.5
2022-09-30T02:00:02.274Z,4.6
2022-09-30T02:10:03.941Z,4.4
2022-09-30T02:20:06.280Z,4.4
2022-09-30T02:30:08.672Z,4.3
2022-09-30T02:40:10.926Z,4.3
2022-09-30T02:50:12.994Z,4.1
2022-09-30T03:00:16.699Z,4
2022-09-30T03:10:19.694Z,4
2022-09-30T03:20:18.939Z,4
2022-09-30T03:30:24.212Z,4
2022-09-30T03:40:23.031Z,3.8
2022-09-30T03:50:26.079Z,3.7
2022-09-30T04:00:28.534Z,3.8
2022-09-30T04:30:34.375Z,3.6
2022-09-30T04:40:36.861Z,3.8
2022-09-30T05:10:43.539Z,3.6
2022-09-30T05:20:45.518Z,3.6
2022-09-30T05:30:47.396Z,3.4
2022-09-30T05:50:52.306Z,3.9
2022-09-30T06:00:54.076Z,3.7
2022-09-30T06:10:55.834Z,4
2022-09-30T06:31:00.225Z,4.7
2022-09-30T06:41:02.599Z,5.3
2022-09-30T07:01:07.107Z,6.7
2022-09-30T07:21:11.345Z,7.6
2022-09-30T07:31:31.742Z,8.4
2022-09-30T07:41:15.300Z,9
2022-09-30T08:01:19.884Z,10.1
2022-09-30T08:11:22.412Z,10.7
2022-09-30T08:21:24.592Z,10.8
2022-09-30T08:31:26.945Z,11.1
2022-09-30T08:41:29.436Z,11.6
2022-09-30T08:51:31.303Z,12.6
2022-09-30T09:01:33.794Z,12.5
2022-09-30T09:11:38.829Z,12.6
2022-09-30T09:21:37.702Z,13.2
2022-09-30T09:41:41.820Z,13.6
2022-09-30T09:51:43.643Z,14.1
2022-09-30T10:01:46.179Z,14.2
2022-09-30T10:11:48.776Z,14.1
2022-09-30T10:21:51.776Z,15
2022-09-30T10:31:56.090Z,14.8
2022-09-30T10:41:55.404Z,14.9
2022-09-30T11:02:00.887Z,15
2022-09-30T11:22:03.230Z,14.9
2022-09-30T11:32:05.749Z,14.6
2022-09-30T11:42:07.973Z,14.9
2022-09-30T11:52:09.937Z,14.6
2022-09-30T12:02:11.950Z,14.5
2022-09-30T12:22:15.783Z,15.1
2022-09-30T12:32:18.323Z,14.7
2022-09-30T12:42:20.724Z,16.1
2022-09-30T12:52:22.988Z,16
2022-09-30T13:02:25.591Z,16
2022-09-30T13:12:27.289Z,16.2
2022-09-30T13:22:29.808Z,15.7
2022-09-30T13:32:32.271Z,15.8
2022-09-30T13:42:34.260Z,15.5
2022-09-30T13:52:36.306Z,15.9
2022-09-30T14:02:38.574Z,15.6
2022-09-30T14:12:40.928Z,15.7
2022-09-30T14:22:43.005Z,15.3
2022-09-30T14:32:44.792Z,15.8
2022-09-30T14:42:47.415Z,15.8
2022-09-30T14:52:49.306Z,15.4
2022-09-30T15:02:51.272Z,15.7
2022-09-30T15:22:54.913Z,15.3
2022-09-30T15:32:57.471Z,15.5
2022-09-30T15:42:59.102Z,15.4
2022-09-30T15:53:01.207Z,15.4
2022-09-30T16:03:03.486Z,15.2
2022-09-30T16:13:05.439Z,15.2
2022-09-30T16:23:07.938Z,15.2
2022-09-30T16:33:10.379Z,14.9
2022-09-30T16:43:12.326Z,14.6
2022-09-30T16:53:14.709Z,14.4
2022-09-30T17:03:16.448Z,14.2
2022-09-30T17:13:19.067Z,13.7
2022-09-30T17:23:21.633Z,13.3
2022-09-30T17:33:23.294Z,12.9
2022-09-30T17:43:25.605Z,13
2022-09-30T17:53:27.559Z,13
2022-09-30T18:13:31.932Z,12.3
2022-09-30T18:23:33.965Z,12.4
2022-09-30T18:33:35.586Z,12.6
2022-09-30T18:43:37.784Z,12.3
2022-09-30T18:53:39.538Z,12.3
2022-09-30T19:03:42.071Z,12.1
2022-09-30T19:13:43.862Z,11.8
2022-09-30T19:33:55.666Z,12.1
2022-09-30T19:43:49.767Z,12.1
2022-09-30T19:53:59.433Z,12
2022-09-30T20:03:54.163Z,12
2022-09-30T20:13:56.105Z,12
2022-09-30T20:23:57.792Z,11.9
2022-09-30T20:33:59.443Z,12.1
2022-09-30T20:44:01.417Z,12.1
2022-09-30T20:54:03.600Z,12.1
2022-09-30T21:04:05.290Z,12.1
2022-09-30T21:14:07.821Z,12.3
2022-09-30T21:24:09.689Z,12.3
2022-09-30T21:34:11.561Z,12.3
2022-09-30T21:44:13.379Z,12.5
2022-09-30T21:54:15.667Z,12.5
2022-09-30T22:04:17.410Z,12.6
2022-09-30T22:14:19.721Z,12.5
2022-09-30T22:24:21.915Z,12.5
2022-09-30T22:34:24.232Z,12.4
2022-09-30T22:44:25.917Z,12.5
2022-09-30T22:54:27.779Z,12.5
2022-09-30T23:04:30.274Z,12.5
2022-09-30T23:05:14.024Z,12.5
2022-09-30T23:14:39.797Z,12.7
2022-09-30T23:24:42.270Z,13
2022-09-30T23:34:44.364Z,12.9
2022-09-30T23:44:46.904Z,13.1
2022-09-30T23:54:49.445Z,13
